Boeing 737-8ASW from Ryanair at Eindhoven.
 Regi:EI-FRP  LARGER
 MSN Year:62692 2016-01
 Date of picture:2019-04-11 10:20
 Position:04
 Flight: DEP AGP FR2576 Malaga Costa de Sol Airport Spain
 Logs: AGP Malaga FR2576 Ryanair 09:50 AM B738 (EI-FRP) Departed 10:50 AM
 Notam EHEH M0492/19 Military 03/05/2019 0910 06/05/2019 2359 CRANE ERECTED AT EINDHOVEN PSN 512738N0052358E (EHEH ARP RDL056 2100M) ELEVATION 234FT AMSL (HEIGHT 160FT AGL). ICAO MARKED.
 Metar 11/04/2019 09:55 METAR EHEH 110955Z AUTO 03010KT 350V080 9999 NCD 09/00 Q1024 BLU 04010KT CAVOK=
 Hits: 25 ID: 2314

Debriefing: Photographed movements of Airports in NW-Europe.
The images of our site attendant is in authorisation from Queen of Sky.
Copying of images of this site have been prohibited in which manner without the authorisation of the photographer.
In behalf of the crew :"Thank you visiting us" - Contact
Factsheets Boeing, 737-8ASW, Ryanair, made by De Plane! © 2006 - 2022 All rights reserved


.